createdAt,value
2019-03-23T00:02:07.740Z,0.90
2019-03-23T00:04:36.412Z,0.90
2019-03-23T00:07:05.052Z,0.80
2019-03-23T00:09:33.758Z,0.80
2019-03-23T00:12:02.337Z,0.80
2019-03-23T00:14:31.031Z,0.80
2019-03-23T00:17:01.739Z,0.80
2019-03-23T00:19:30.461Z,0.80
2019-03-23T00:21:59.137Z,0.70
2019-03-23T00:24:27.771Z,0.60
2019-03-23T00:26:56.433Z,0.60
2019-03-23T00:29:25.142Z,0.60
2019-03-23T00:31:53.921Z,0.40
2019-03-23T00:34:22.465Z,0.40
2019-03-23T00:36:51.165Z,0.40
2019-03-23T00:39:19.758Z,0.40
2019-03-23T00:41:48.538Z,0.40
2019-03-23T00:44:17.129Z,0.30
2019-03-23T00:46:45.769Z,0.30
2019-03-23T00:49:14.573Z,0.30
2019-03-23T00:51:43.302Z,0.30
2019-03-23T00:54:11.895Z,0.20
2019-03-23T00:56:40.607Z,0.20
2019-03-23T00:59:09.205Z,0.20
2019-03-23T01:01:37.805Z,0.20
2019-03-23T01:04:06.499Z,0.20
2019-03-23T01:06:35.083Z,0.20
2019-03-23T01:09:05.500Z,0.20
2019-03-23T01:11:34.137Z,0.30
2019-03-23T01:14:02.852Z,0.30
2019-03-23T01:16:31.544Z,0.30
2019-03-23T01:19:00.229Z,0.40
2019-03-23T01:21:28.839Z,0.30
2019-03-23T01:23:57.424Z,0.30
2019-03-23T01:26:26.141Z,0.20
2019-03-23T01:28:54.695Z,0.10
2019-03-23T01:31:23.278Z,0.10
2019-03-23T01:33:51.925Z,0.20
2019-03-23T01:36:20.549Z,0.20
2019-03-23T01:38:49.107Z,0.20
2019-03-23T01:41:17.846Z,0.20
2019-03-23T01:43:46.525Z,0.20
2019-03-23T01:46:15.108Z,0.20
2019-03-23T01:48:43.776Z,0.30
2019-03-23T01:51:12.385Z,0.20
2019-03-23T01:53:41.011Z,0.20
2019-03-23T01:56:09.614Z,0.20
2019-03-23T01:58:38.245Z,0.30
2019-03-23T02:01:06.911Z,0.30
2019-03-23T02:03:35.612Z,0.30
2019-03-23T02:06:04.376Z,0.30
2019-03-23T02:08:33.033Z,0.30
2019-03-23T02:11:01.678Z,0.30
2019-03-23T02:13:30.326Z,0.30
2019-03-23T02:15:58.973Z,0.30
2019-03-23T02:18:27.670Z,0.30
2019-03-23T02:20:56.954Z,0.20
2019-03-23T02:23:25.567Z,0.20
2019-03-23T02:25:54.158Z,0.20
2019-03-23T02:28:22.783Z,0.30
2019-03-23T02:30:51.417Z,0.30
2019-03-23T02:33:20.097Z,0.30
2019-03-23T02:35:48.844Z,0.20
2019-03-23T02:38:17.501Z,0.20
2019-03-23T02:40:46.221Z,0.20
2019-03-23T02:43:14.787Z,0.20
2019-03-23T02:45:43.567Z,0.10
2019-03-23T02:48:12.153Z,0.10
2019-03-23T02:50:40.778Z,0.10
2019-03-23T02:53:09.406Z,0.00
2019-03-23T02:55:38.100Z,0.00
2019-03-23T02:58:06.691Z,0.00
2019-03-23T03:00:35.574Z,0.00
2019-03-23T03:03:04.229Z,0.00
2019-03-23T03:05:32.864Z,0.00
2019-03-23T03:08:01.640Z,-0.10
2019-03-23T03:10:41.245Z,-0.10
2019-03-23T03:13:10.032Z,0.00
2019-03-23T03:15:38.953Z,0.00
2019-03-23T03:18:07.888Z,-0.10
2019-03-23T03:20:36.795Z,-0.10
2019-03-23T03:23:05.565Z,-0.10
2019-03-23T03:25:34.225Z,-0.10
2019-03-23T03:28:03.040Z,-0.10
2019-03-23T03:30:31.729Z,-0.10
2019-03-23T03:33:01.576Z,-0.10
2019-03-23T03:35:30.302Z,-0.10
2019-03-23T03:37:58.959Z,-0.10
2019-03-23T03:40:27.759Z,-0.10
2019-03-23T03:42:56.432Z,-0.10
2019-03-23T03:45:27.645Z,0.00
2019-03-23T03:47:56.275Z,0.00
2019-03-23T03:50:24.951Z,0.10
2019-03-23T03:52:53.587Z,0.20
2019-03-23T03:55:22.318Z,0.20
2019-03-23T03:57:51.037Z,0.30
2019-03-23T04:00:19.794Z,0.30
2019-03-23T04:02:48.453Z,0.30
2019-03-23T04:05:17.197Z,0.40
2019-03-23T04:07:46.314Z,0.40
2019-03-23T04:10:15.022Z,0.40
2019-03-23T04:12:43.587Z,0.40
2019-03-23T04:15:12.497Z,0.50
2019-03-23T04:17:41.197Z,0.50
2019-03-23T04:20:11.213Z,0.50
2019-03-23T04:22:39.941Z,0.50
2019-03-23T04:25:09.970Z,0.50
2019-03-23T04:27:38.664Z,0.50
2019-03-23T04:30:12.061Z,0.50
2019-03-23T04:32:40.779Z,0.50
2019-03-23T04:35:09.487Z,0.50
2019-03-23T04:37:38.698Z,0.50
2019-03-23T04:40:10.135Z,0.50
2019-03-23T04:42:41.930Z,0.60
2019-03-23T04:45:11.249Z,0.60
2019-03-23T04:47:39.980Z,0.70
2019-03-23T04:50:10.650Z,0.70
2019-03-23T04:52:39.343Z,0.80
2019-03-23T04:55:10.971Z,0.80
2019-03-23T04:57:40.135Z,0.80
2019-03-23T05:00:17.626Z,0.90
2019-03-23T05:02:46.363Z,0.90
2019-03-23T05:05:15.021Z,1.00
2019-03-23T05:07:43.612Z,1.00
2019-03-23T05:10:14.573Z,1.10
2019-03-23T05:12:43.312Z,1.10
2019-03-23T05:15:12.150Z,1.20
2019-03-23T05:17:41.460Z,1.20
2019-03-23T05:20:30.706Z,1.20
2019-03-23T05:22:59.730Z,1.20
2019-03-23T05:25:30.032Z,1.30
2019-03-23T05:27:58.970Z,1.40
2019-03-23T05:30:27.634Z,1.50
2019-03-23T05:32:56.301Z,1.60
2019-03-23T05:35:25.066Z,1.70
2019-03-23T05:37:53.722Z,1.80
2019-03-23T05:40:22.420Z,2.00
2019-03-23T05:42:51.295Z,2.00
2019-03-23T05:45:19.926Z,2.10
2019-03-23T05:47:48.611Z,2.20
2019-03-23T05:50:17.222Z,2.30
2019-03-23T05:52:45.889Z,2.30
2019-03-23T05:55:14.605Z,2.40
2019-03-23T05:57:43.218Z,2.40
2019-03-23T06:00:13.919Z,2.40
2019-03-23T06:02:42.514Z,2.40
2019-03-23T06:05:11.262Z,2.50
2019-03-23T06:07:39.834Z,2.50
2019-03-23T06:10:08.767Z,2.60
2019-03-23T06:12:37.551Z,2.70
2019-03-23T06:15:07.691Z,2.80
2019-03-23T06:17:36.411Z,2.90
2019-03-23T06:20:07.479Z,3.00
2019-03-23T06:22:37.587Z,3.10
2019-03-23T06:25:07.210Z,3.20
2019-03-23T06:27:35.859Z,3.30
2019-03-23T06:30:06.699Z,3.40
2019-03-23T06:32:35.407Z,3.60
2019-03-23T06:35:04.534Z,3.70
2019-03-23T06:37:33.178Z,3.80
2019-03-23T06:40:01.830Z,3.90
2019-03-23T06:42:30.638Z,3.90
2019-03-23T06:44:59.436Z,4.00
2019-03-23T06:47:28.142Z,4.10
2019-03-23T06:49:56.709Z,4.10
2019-03-23T06:52:25.334Z,4.20
2019-03-23T06:54:53.921Z,4.30
2019-03-23T06:57:22.612Z,4.40
2019-03-23T06:59:51.382Z,4.40
2019-03-23T07:02:19.991Z,4.50
2019-03-23T07:04:48.690Z,4.60
2019-03-23T07:07:17.425Z,4.60
2019-03-23T07:09:46.018Z,4.80
2019-03-23T07:12:14.625Z,4.80
2019-03-23T07:14:43.277Z,4.90
2019-03-23T07:17:11.918Z,5.00
2019-03-23T07:19:40.472Z,5.10
2019-03-23T07:22:09.078Z,5.20
2019-03-23T07:24:37.636Z,5.30
2019-03-23T07:27:07.583Z,5.40
2019-03-23T07:29:36.242Z,5.50
2019-03-23T07:32:06.013Z,6.70
2019-03-23T07:34:34.903Z,8.60
2019-03-23T07:37:04.194Z,8.30
2019-03-23T07:39:32.791Z,8.80
2019-03-23T07:42:01.419Z,8.40
2019-03-23T07:44:30.090Z,8.20
2019-03-23T07:46:58.658Z,7.60
2019-03-23T07:49:27.280Z,7.00
2019-03-23T07:51:55.932Z,6.90
2019-03-23T07:54:24.678Z,6.40
2019-03-23T07:56:53.282Z,6.50
2019-03-23T07:59:22.622Z,6.40
2019-03-23T08:01:51.242Z,6.60
2019-03-23T08:04:19.970Z,7.00
2019-03-23T08:06:48.537Z,7.00
2019-03-23T08:09:20.598Z,6.80
2019-03-23T08:11:47.456Z,6.60
2019-03-23T08:14:16.081Z,6.50
2019-03-23T08:16:44.652Z,6.60
2019-03-23T08:19:13.212Z,6.60
2019-03-23T08:21:41.837Z,6.70
2019-03-23T08:24:10.454Z,6.80
2019-03-23T08:26:40.123Z,6.90
2019-03-23T08:29:08.750Z,7.00
2019-03-23T08:31:37.439Z,7.30
2019-03-23T08:34:06.124Z,7.30
2019-03-23T08:36:34.800Z,7.50
2019-03-23T08:39:04.503Z,7.70
2019-03-23T08:41:33.065Z,7.90
2019-03-23T08:44:01.669Z,8.10
2019-03-23T08:46:30.264Z,8.40
2019-03-23T08:48:58.900Z,8.50
2019-03-23T08:51:27.476Z,8.60
2019-03-23T08:53:58.271Z,8.90
2019-03-23T08:56:26.883Z,9.40
2019-03-23T08:58:55.503Z,8.90
2019-03-23T09:01:24.090Z,9.30
2019-03-23T09:03:52.925Z,9.20
2019-03-23T09:06:21.603Z,9.60
2019-03-23T09:08:50.277Z,9.10
2019-03-23T09:11:20.639Z,9.10
2019-03-23T09:13:49.181Z,9.10
2019-03-23T09:16:17.865Z,9.10
2019-03-23T09:18:46.479Z,9.30
2019-03-23T09:21:15.042Z,9.20
2019-03-23T09:23:44.652Z,8.90
2019-03-23T09:26:13.763Z,8.80
2019-03-23T09:28:42.479Z,8.60
2019-03-23T09:31:11.063Z,8.60
2019-03-23T09:33:39.690Z,8.70
2019-03-23T09:36:08.462Z,9.00
2019-03-23T09:38:37.071Z,9.00
2019-03-23T09:41:05.868Z,9.10
2019-03-23T09:43:34.432Z,9.50
2019-03-23T09:46:03.274Z,10.20
2019-03-23T09:48:32.000Z,10.70
2019-03-23T09:51:02.186Z,10.90
2019-03-23T09:53:30.794Z,11.10
2019-03-23T09:55:59.354Z,10.60
2019-03-23T09:58:27.968Z,10.40
2019-03-23T10:00:57.641Z,10.80
2019-03-23T10:03:26.255Z,10.90
2019-03-23T10:05:54.842Z,11.00
2019-03-23T10:08:23.411Z,11.10
2019-03-23T10:10:52.018Z,10.50
2019-03-23T10:13:20.579Z,10.40
2019-03-23T10:15:49.286Z,11.00
2019-03-23T10:18:17.881Z,11.10
2019-03-23T10:20:46.546Z,10.90
2019-03-23T10:23:15.130Z,10.40
2019-03-23T10:25:43.714Z,10.90
2019-03-23T10:28:12.521Z,11.80
2019-03-23T10:30:41.089Z,12.60
2019-03-23T10:33:09.688Z,12.30
2019-03-23T10:35:38.359Z,12.20
2019-03-23T10:38:07.017Z,12.60
2019-03-23T10:40:35.909Z,12.70
2019-03-23T10:43:04.643Z,13.20
2019-03-23T10:45:40.031Z,13.90
2019-03-23T10:48:03.712Z,13.10
2019-03-23T10:50:32.414Z,12.40
2019-03-23T10:53:01.052Z,11.90
2019-03-23T10:55:29.718Z,11.90
2019-03-23T10:57:58.338Z,12.50
2019-03-23T11:00:26.942Z,13.20
2019-03-23T11:02:55.538Z,13.90
2019-03-23T11:05:24.119Z,12.90
2019-03-23T11:07:52.703Z,13.40
2019-03-23T11:10:21.567Z,13.40
2019-03-23T11:12:50.133Z,14.20
2019-03-23T11:15:18.742Z,13.70
2019-03-23T11:17:48.716Z,14.10
2019-03-23T11:20:17.414Z,14.30
2019-03-23T11:22:46.111Z,14.90
2019-03-23T11:25:14.846Z,14.60
2019-03-23T11:27:43.500Z,15.00
2019-03-23T11:30:13.765Z,14.60
2019-03-23T11:32:42.494Z,14.80
2019-03-23T11:35:11.532Z,13.80
2019-03-23T11:37:40.537Z,14.50
2019-03-23T11:40:13.117Z,15.20
2019-03-23T11:42:49.941Z,14.60
2019-03-23T11:45:12.450Z,13.70
2019-03-23T11:47:41.195Z,13.40
2019-03-23T11:50:10.734Z,14.00
2019-03-23T11:52:39.409Z,13.80
2019-03-23T11:55:08.468Z,14.00
2019-03-23T11:57:37.050Z,13.20
2019-03-23T12:00:08.891Z,12.90
2019-03-23T12:02:37.569Z,13.10
2019-03-23T12:05:07.846Z,12.70
2019-03-23T12:07:36.550Z,12.40
2019-03-23T12:10:07.781Z,12.20
2019-03-23T12:12:36.383Z,11.90
2019-03-23T12:15:07.259Z,11.50
2019-03-23T12:17:35.884Z,11.40
2019-03-23T12:20:06.432Z,11.30
2019-03-23T12:22:36.227Z,11.40
2019-03-23T12:25:05.954Z,11.50
2019-03-23T12:27:34.741Z,11.50
2019-03-23T12:30:07.541Z,11.70
2019-03-23T12:32:34.440Z,11.80
2019-03-23T12:35:03.173Z,11.50
2019-03-23T12:37:31.933Z,11.60
2019-03-23T12:40:00.524Z,11.60
2019-03-23T12:42:30.696Z,11.40
2019-03-23T12:44:59.346Z,11.20
2019-03-23T12:47:27.988Z,11.30
2019-03-23T12:49:56.601Z,11.10
2019-03-23T12:52:25.195Z,11.20
2019-03-23T12:54:55.288Z,11.00
2019-03-23T12:57:24.006Z,11.10
2019-03-23T12:59:52.588Z,11.10
2019-03-23T13:02:21.385Z,11.00
2019-03-23T13:04:50.131Z,11.00
2019-03-23T13:07:18.717Z,11.10
2019-03-23T13:09:47.391Z,11.10
2019-03-23T13:12:15.964Z,10.90
2019-03-23T13:14:44.601Z,10.80
2019-03-23T13:17:13.256Z,10.60
2019-03-23T13:19:41.933Z,10.50
2019-03-23T13:22:10.540Z,10.70
2019-03-23T13:24:39.316Z,10.60
2019-03-23T13:27:07.979Z,10.50
2019-03-23T13:29:36.573Z,10.50
2019-03-23T13:32:05.298Z,10.40
2019-03-23T13:34:33.889Z,10.50
2019-03-23T13:37:02.489Z,10.70
2019-03-23T13:39:31.116Z,10.50
2019-03-23T13:41:59.788Z,10.40
2019-03-23T13:44:28.459Z,10.10
2019-03-23T13:46:57.052Z,10.20
2019-03-23T13:49:25.634Z,10.30
2019-03-23T13:51:54.341Z,10.20
2019-03-23T13:54:23.006Z,10.10
2019-03-23T13:56:51.611Z,9.90
2019-03-23T13:59:20.281Z,9.90
2019-03-23T14:01:48.965Z,10.10
2019-03-23T14:04:17.730Z,9.90
2019-03-23T14:06:46.340Z,10.00
2019-03-23T14:09:15.010Z,9.90
2019-03-23T14:11:43.597Z,9.90
2019-03-23T14:14:13.443Z,9.90
2019-03-23T14:16:42.122Z,9.80
2019-03-23T14:19:10.691Z,9.80
2019-03-23T14:21:39.354Z,9.70
2019-03-23T14:24:08.088Z,9.50
2019-03-23T14:26:36.709Z,9.50
2019-03-23T14:29:05.394Z,9.50
2019-03-23T14:31:34.107Z,9.40
2019-03-23T14:34:02.841Z,9.40
2019-03-23T14:36:31.542Z,9.50
2019-03-23T14:39:00.137Z,9.50
2019-03-23T14:41:28.907Z,9.40
2019-03-23T14:43:59.026Z,9.50
2019-03-23T14:46:27.660Z,9.40
2019-03-23T14:49:01.583Z,9.30
2019-03-23T14:51:26.519Z,9.20
2019-03-23T14:53:55.109Z,9.20
2019-03-23T14:56:23.709Z,9.30
2019-03-23T14:58:52.346Z,9.20
2019-03-23T15:01:20.952Z,9.20
2019-03-23T15:03:49.603Z,9.10
2019-03-23T15:06:18.181Z,9.10
2019-03-23T15:08:46.773Z,9.00
2019-03-23T15:11:16.213Z,9.10
2019-03-23T15:13:44.784Z,9.10
2019-03-23T15:16:13.420Z,9.00
2019-03-23T15:18:43.125Z,9.00
2019-03-23T15:21:11.796Z,9.00
2019-03-23T15:23:40.390Z,8.80
2019-03-23T15:26:09.002Z,8.80
2019-03-23T15:28:37.610Z,8.80
2019-03-23T15:31:06.391Z,8.70
2019-03-23T15:33:35.049Z,8.70
2019-03-23T15:36:03.808Z,8.60
2019-03-23T15:38:32.399Z,8.60
2019-03-23T15:41:01.099Z,8.60
2019-03-23T15:43:29.692Z,8.60
2019-03-23T15:45:58.281Z,8.60
2019-03-23T15:48:28.657Z,8.60
2019-03-23T15:50:57.187Z,8.50
2019-03-23T15:53:25.858Z,8.50
2019-03-23T15:55:55.012Z,8.60
2019-03-23T15:58:23.678Z,8.60
2019-03-23T16:00:52.431Z,8.50
2019-03-23T16:03:20.996Z,8.50
2019-03-23T16:05:49.669Z,8.40
2019-03-23T16:08:18.336Z,8.40
2019-03-23T16:10:47.063Z,8.50
2019-03-23T16:13:15.661Z,8.50
2019-03-23T16:15:44.260Z,8.50
2019-03-23T16:18:12.932Z,8.40
2019-03-23T16:20:41.520Z,8.40
2019-03-23T16:23:10.356Z,8.50
2019-03-23T16:25:38.934Z,8.40
2019-03-23T16:28:07.509Z,8.40
2019-03-23T16:30:36.258Z,8.30
2019-03-23T16:33:04.956Z,8.30
2019-03-23T16:35:33.655Z,8.30
2019-03-23T16:38:02.449Z,8.20
2019-03-23T16:40:31.090Z,8.30
2019-03-23T16:42:59.681Z,8.30
2019-03-23T16:45:28.321Z,8.30
2019-03-23T16:47:56.849Z,8.20
2019-03-23T16:50:25.471Z,8.30
2019-03-23T16:52:54.100Z,8.20
2019-03-23T16:55:22.715Z,8.20
2019-03-23T16:57:51.386Z,8.30
2019-03-23T17:00:23.122Z,8.20
2019-03-23T17:02:51.798Z,8.20
2019-03-23T17:05:20.439Z,8.20
2019-03-23T17:07:49.064Z,8.20
2019-03-23T17:10:17.689Z,8.10
2019-03-23T17:12:55.091Z,8.10
2019-03-23T17:15:16.529Z,8.00
2019-03-23T17:17:45.750Z,8.10
2019-03-23T17:20:14.491Z,8.00
2019-03-23T17:22:43.101Z,8.00
2019-03-23T17:25:11.854Z,8.00
2019-03-23T17:27:40.446Z,7.90
2019-03-23T17:30:09.813Z,7.90
2019-03-23T17:32:39.916Z,7.80
2019-03-23T17:35:09.270Z,7.90
2019-03-23T17:37:37.974Z,7.90
2019-03-23T17:40:08.282Z,7.80
2019-03-23T17:42:36.924Z,7.80
2019-03-23T17:45:07.496Z,7.80
2019-03-23T17:47:36.216Z,7.80
2019-03-23T17:50:06.039Z,7.80
2019-03-23T17:52:34.742Z,7.70
2019-03-23T17:55:04.418Z,7.80
2019-03-23T17:57:32.981Z,7.80
2019-03-23T18:00:02.270Z,7.80
2019-03-23T18:02:30.897Z,7.80
2019-03-23T18:05:00.364Z,7.80
2019-03-23T18:07:28.961Z,7.80
2019-03-23T18:09:57.647Z,7.80
2019-03-23T18:12:26.378Z,7.70
2019-03-23T18:14:54.956Z,7.80
2019-03-23T18:17:23.562Z,7.80
2019-03-23T18:19:52.184Z,7.70
2019-03-23T18:22:20.796Z,7.70
2019-03-23T18:24:49.386Z,7.70
2019-03-23T18:27:18.024Z,7.70
2019-03-23T18:29:47.558Z,7.70
2019-03-23T18:32:16.274Z,7.70
2019-03-23T18:34:44.936Z,7.70
2019-03-23T18:37:13.973Z,7.70
2019-03-23T18:39:42.526Z,7.70
2019-03-23T18:42:11.246Z,7.70
2019-03-23T18:44:39.916Z,7.70
2019-03-23T18:47:08.569Z,7.70
2019-03-23T18:49:37.225Z,7.70
2019-03-23T18:52:06.045Z,7.70
2019-03-23T18:54:34.683Z,7.70
2019-03-23T18:57:03.367Z,7.70
2019-03-23T18:59:31.929Z,7.70
2019-03-23T19:02:00.710Z,7.70
2019-03-23T19:04:29.439Z,7.70
2019-03-23T19:06:58.073Z,7.70
2019-03-23T19:09:26.742Z,7.70
2019-03-23T19:11:55.447Z,7.60
2019-03-23T19:14:24.022Z,7.60
2019-03-23T19:16:52.642Z,7.50
2019-03-23T19:19:21.398Z,7.40
2019-03-23T19:21:50.057Z,7.50
2019-03-23T19:24:18.733Z,7.40
2019-03-23T19:26:47.301Z,7.50
2019-03-23T19:29:15.951Z,7.50
2019-03-23T19:31:44.553Z,7.40
2019-03-23T19:34:13.194Z,7.50
2019-03-23T19:36:41.803Z,7.40
2019-03-23T19:39:10.479Z,7.40
2019-03-23T19:41:39.097Z,7.30
2019-03-23T19:44:07.659Z,7.30
2019-03-23T19:46:36.367Z,7.30
2019-03-23T19:49:05.008Z,7.30
2019-03-23T19:51:33.660Z,7.20
2019-03-23T19:54:02.427Z,7.20
2019-03-23T19:56:31.094Z,7.20
2019-03-23T19:58:59.693Z,7.10
2019-03-23T20:01:28.381Z,7.10
2019-03-23T20:03:57.042Z,7.00
2019-03-23T20:06:25.715Z,7.00
2019-03-23T20:08:54.273Z,7.00
2019-03-23T20:11:22.975Z,6.90
2019-03-23T20:13:58.631Z,6.90
2019-03-23T20:16:21.957Z,6.90
2019-03-23T20:18:50.554Z,6.90
2019-03-23T20:21:19.149Z,6.80
2019-03-23T20:23:47.746Z,6.80
2019-03-23T20:26:16.348Z,6.70
2019-03-23T20:28:45.013Z,6.70
2019-03-23T20:31:13.621Z,6.70
2019-03-23T20:33:43.591Z,6.60
2019-03-23T20:36:12.226Z,6.60
2019-03-23T20:38:40.862Z,6.60
2019-03-23T20:41:09.457Z,6.50
2019-03-23T20:43:38.158Z,6.50
2019-03-23T20:46:06.953Z,6.50
2019-03-23T20:48:36.874Z,6.50
2019-03-23T20:51:05.627Z,6.50
2019-03-23T20:53:34.473Z,6.40
2019-03-23T20:56:03.093Z,6.40
2019-03-23T20:58:31.704Z,6.30
2019-03-23T21:01:00.321Z,6.30
2019-03-23T21:03:28.893Z,6.30
2019-03-23T21:05:57.540Z,6.30
2019-03-23T21:08:26.139Z,6.20
2019-03-23T21:10:54.764Z,6.20
2019-03-23T21:13:23.425Z,6.20
2019-03-23T21:15:52.082Z,6.10
2019-03-23T21:18:20.721Z,6.10
2019-03-23T21:20:49.570Z,6.10
2019-03-23T21:23:18.367Z,6.00
2019-03-23T21:25:47.014Z,6.00
2019-03-23T21:28:15.591Z,6.00
2019-03-23T21:30:44.223Z,5.90
2019-03-23T21:33:12.911Z,5.90
2019-03-23T21:35:41.449Z,5.90
2019-03-23T21:38:10.052Z,5.90
2019-03-23T21:40:38.736Z,5.90
2019-03-23T21:43:07.326Z,5.90
2019-03-23T21:45:35.964Z,5.80
2019-03-23T21:48:05.044Z,5.80
2019-03-23T21:50:33.669Z,5.80
2019-03-23T21:53:02.318Z,5.70
2019-03-23T21:55:30.869Z,5.80
2019-03-23T21:57:59.549Z,5.70
2019-03-23T22:00:33.154Z,5.60
2019-03-23T22:03:02.192Z,5.60
2019-03-23T22:05:31.018Z,5.60
2019-03-23T22:07:59.632Z,5.60
2019-03-23T22:10:28.221Z,5.50
2019-03-23T22:12:56.907Z,5.50
2019-03-23T22:15:25.573Z,5.50
2019-03-23T22:17:54.256Z,5.40
2019-03-23T22:20:22.929Z,5.40
2019-03-23T22:22:51.515Z,5.40
2019-03-23T22:25:20.164Z,5.30
2019-03-23T22:27:48.791Z,5.30
2019-03-23T22:30:17.539Z,5.30
2019-03-23T22:32:46.170Z,5.20
2019-03-23T22:35:14.908Z,5.20
2019-03-23T22:37:43.649Z,5.20
2019-03-23T22:40:14.281Z,5.20
2019-03-23T22:42:42.966Z,5.10
2019-03-23T22:45:12.002Z,5.10
2019-03-23T22:47:40.688Z,5.10
2019-03-23T22:50:12.839Z,5.00
2019-03-23T22:52:41.650Z,5.00
2019-03-23T22:55:10.581Z,5.00
2019-03-23T22:57:39.294Z,4.90
2019-03-23T23:00:15.116Z,4.90
2019-03-23T23:02:43.854Z,4.90
2019-03-23T23:05:12.603Z,4.90
2019-03-23T23:07:41.212Z,4.80
2019-03-23T23:10:10.009Z,4.80
2019-03-23T23:12:38.622Z,4.80
2019-03-23T23:15:09.098Z,4.70
2019-03-23T23:17:37.665Z,4.70
2019-03-23T23:20:07.687Z,4.70
2019-03-23T23:22:36.346Z,4.70
2019-03-23T23:25:08.258Z,4.70
2019-03-23T23:27:37.336Z,4.60
2019-03-23T23:30:08.301Z,4.60
2019-03-23T23:32:37.170Z,4.50
2019-03-23T23:35:08.164Z,4.60
2019-03-23T23:37:36.860Z,4.50
2019-03-23T23:40:07.300Z,4.50
2019-03-23T23:42:36.240Z,4.40
2019-03-23T23:45:14.890Z,4.40
2019-03-23T23:47:37.533Z,4.40
2019-03-23T23:50:06.849Z,4.40
2019-03-23T23:52:35.442Z,4.40
2019-03-23T23:55:05.273Z,4.40
2019-03-23T23:57:33.877Z,4.40
